Terminal Aerodrome Forecast
Issued by NWS

Home | Current Version | Previous Version | Text Only | Print | Product List | Glossary On
Versions: 1 2 3 4 5 6 7 8 9 10 11 12 13 14 15 16 17 18 19 20
000
FTUS43 KILX 191733
TAFBMI
TAF
KBMI 191733Z 1918/2018 VRB05KT P6SM BKN015
     FM192100 00000KT P6SM BKN030
     FM200000 VRB03KT P6SM FEW200
      TEMPO 2008/2012 4SM BR
     FM201500 18007KT P6SM FEW250=

USA.gov is the U.S. government's official web portal to all federal, state and local government web resources and services.